Time;durP1;ratioP1;P1;durP2;ratioP2;P2;SDS_P1;SDS_P2;PMS_P1;PMS_P2;Temp;Humidity;BMP_temperature;BMP_pressure;BME280_temperature;BME280_humidity;BME280_pressure;Samples;Min_cycle;Max_cycle;Signal;HPM_P1;HPM_P2
2022/01/24 00:01:31;;;;;;;4.45;1.70;;;;;;;;;;5033474;28;20544;-79
2022/01/24 00:03:58;;;;;;;2.92;1.55;;;;;;;;;;5033622;28;20072;-79
2022/01/24 00:06:25;;;;;;;3.30;1.63;;;;;;;;;;5037887;28;20033;-79
2022/01/24 00:08:51;;;;;;;3.10;1.33;;;;;;;;;;5035264;28;20048;-78
2022/01/24 00:11:22;;;;;;;7.13;2.42;;;;;;;;;;5042274;28;20137;-79
2022/01/24 00:16:56;;;;;;;1.35;1.02;;;;;;;;;;5038326;28;20040;-79
2022/01/24 00:27:16;;;;;;;1.70;1.10;;;;;;;;;;5036941;28;20501;-79
2022/01/24 00:29:42;;;;;;;1.05;0.95;;;;;;;;;;5033699;28;20025;-79
2022/01/24 00:32:08;;;;;;;1.80;0.70;;;;;;;;;;5036862;28;20060;-79
2022/01/24 00:34:34;;;;;;;2.60;1.73;;;;;;;;;;5040042;28;20028;-79
2022/01/24 00:37:01;;;;;;;0.85;0.80;;;;;;;;;;5043835;28;20469;-79
2022/01/24 00:39:27;;;;;;;1.05;0.70;;;;;;;;;;5039901;28;20408;-78
2022/01/24 00:44:46;;;;;;;0.60;0.43;;;;;;;;;;5044059;28;20874;-80
2022/01/24 00:47:22;;;;;;;4.88;0.95;;;;;;;;;;5034287;28;20029;-79
2022/01/24 00:55:03;;;;;;;2.00;1.27;;;;;;;;;;5035476;28;20040;-80
2022/01/24 00:57:29;;;;;;;2.55;1.05;;;;;;;;;;5036728;28;20600;-79
2022/01/24 00:59:55;;;;;;;3.13;1.20;;;;;;;;;;5035114;28;20032;-78
2022/01/24 01:02:21;;;;;;;3.08;1.15;;;;;;;;;;5035206;28;20041;-79
2022/01/24 01:07:32;;;;;;;0.63;0.45;;;;;;;;;;5037103;28;20120;-80
2022/01/24 01:18:17;;;;;;;1.85;1.40;;;;;;;;;;5033561;28;20170;-79
2022/01/24 01:21:07;;;;;;;2.10;1.70;;;;;;;;;;5032350;28;20093;-79
2022/01/24 01:23:31;;;;;;;6.57;3.30;;;;;;;;;;5032739;28;20051;-78
2022/01/24 01:25:59;;;;;;;12.77;4.03;;;;;;;;;;5034940;28;20047;-78
2022/01/24 01:28:27;;;;;;;8.35;2.83;;;;;;;;;;5036790;28;20040;-79
2022/01/24 01:30:57;;;;;;;2.70;1.23;;;;;;;;;;5035478;28;20025;-78
2022/01/24 01:33:57;;;;;;;1.65;0.90;;;;;;;;;;5033194;28;20033;-79
2022/01/24 01:36:17;;;;;;;7.78;2.92;;;;;;;;;;5033134;28;20064;-78
2022/01/24 01:52:59;;;;;;;7.28;2.50;;;;;;;;;;5032195;28;20047;-79
2022/01/24 01:58:04;;;;;;;10.15;3.10;;;;;;;;;;5032029;28;20076;-79
2022/01/24 02:00:30;;;;;;;10.50;2.75;;;;;;;;;;5032080;28;20028;-79
2022/01/24 02:02:56;;;;;;;12.75;4.03;;;;;;;;;;5029894;28;20068;-79
2022/01/24 02:05:22;;;;;;;7.43;2.90;;;;;;;;;;5031585;28;20067;-78
2022/01/24 02:07:49;;;;;;;11.55;3.22;;;;;;;;;;5032737;28;20029;-78
2022/01/24 02:10:16;;;;;;;5.57;2.17;;;;;;;;;;5030041;28;20485;-79
2022/01/24 02:12:42;;;;;;;2.05;1.10;;;;;;;;;;5031846;28;20029;-79
2022/01/24 02:15:10;;;;;;;3.33;1.33;;;;;;;;;;5030967;28;20033;-79
2022/01/24 02:21:08;;;;;;;4.53;0.73;;;;;;;;;;5032618;28;20044;-79
2022/01/24 02:25:42;;;;;;;0.80;0.50;;;;;;;;;;5033337;28;20095;-79
2022/01/24 02:28:10;;;;;;;1.00;0.73;;;;;;;;;;5031818;28;20179;-78
2022/01/24 02:33:12;;;;;;;2.65;2.13;;;;;;;;;;5033753;28;20090;-78
2022/01/24 02:35:39;;;;;;;7.47;2.22;;;;;;;;;;5030932;28;20029;-79
2022/01/24 02:38:19;;;;;;;1.75;0.90;;;;;;;;;;5032998;28;20036;-79
2022/01/24 02:46:00;;;;;;;0.88;0.82;;;;;;;;;;5031655;28;20503;-79
2022/01/24 02:49:00;;;;;;;3.75;1.17;;;;;;;;;;5027898;28;20103;-79
2022/01/24 02:53:52;;;;;;;0.98;0.82;;;;;;;;;;5031993;28;20148;-79
2022/01/24 02:56:18;;;;;;;2.42;1.20;;;;;;;;;;5033254;28;20025;-78
2022/01/24 02:58:44;;;;;;;1.05;0.60;;;;;;;;;;5038094;28;20041;-79
2022/01/24 03:01:10;;;;;;;3.13;1.88;;;;;;;;;;5053517;28;20059;-78
2022/01/24 03:03:37;;;;;;;1.08;0.70;;;;;;;;;;5053278;28;20100;-78
2022/01/24 03:06:03;;;;;;;2.20;0.93;;;;;;;;;;5052567;28;21216;-78
2022/01/24 03:08:29;;;;;;;1.48;1.00;;;;;;;;;;5035824;28;21017;-79
2022/01/24 03:10:55;;;;;;;1.20;0.75;;;;;;;;;;5034393;28;20386;-78
2022/01/24 03:15:57;;;;;;;1.48;0.88;;;;;;;;;;5034165;28;20120;-78
2022/01/24 03:18:23;;;;;;;12.60;4.47;;;;;;;;;;5037353;28;20486;-79
2022/01/24 03:20:50;;;;;;;5.90;2.28;;;;;;;;;;5033519;28;20052;-79
2022/01/24 03:23:17;;;;;;;10.35;3.40;;;;;;;;;;5035885;28;20040;-79
2022/01/24 03:25:44;;;;;;;7.55;2.42;;;;;;;;;;5040135;28;20449;-79
2022/01/24 03:28:10;;;;;;;10.32;1.95;;;;;;;;;;5037956;28;20095;-79
2022/01/24 03:30:37;;;;;;;5.38;1.92;;;;;;;;;;5032655;28;20056;-79
2022/01/24 03:33:04;;;;;;;5.88;2.33;;;;;;;;;;5034957;28;20048;-79
2022/01/24 03:35:30;;;;;;;4.70;1.23;;;;;;;;;;5035833;28;20121;-79
2022/01/24 03:37:56;;;;;;;4.28;2.30;;;;;;;;;;5039068;28;20078;-79
2022/01/24 03:40:22;;;;;;;3.45;2.22;;;;;;;;;;5035727;28;20115;-78
2022/01/24 03:42:48;;;;;;;3.03;1.88;;;;;;;;;;5036970;28;20041;-79
2022/01/24 03:45:15;;;;;;;3.50;2.20;;;;;;;;;;5035213;28;20049;-80
2022/01/24 03:47:55;;;;;;;6.25;2.22;;;;;;;;;;5036703;28;20029;-79
2022/01/24 03:50:21;;;;;;;1.95;1.45;;;;;;;;;;5035858;28;20039;-79
2022/01/24 03:52:47;;;;;;;3.70;1.70;;;;;;;;;;5034111;28;20044;-78
2022/01/24 03:55:14;;;;;;;4.93;2.30;;;;;;;;;;5038822;28;20132;-79
2022/01/24 03:57:40;;;;;;;4.00;2.15;;;;;;;;;;5033868;28;20544;-79
2022/01/24 04:00:07;;;;;;;5.53;1.73;;;;;;;;;;5034865;28;20036;-78
2022/01/24 04:02:33;;;;;;;2.85;1.90;;;;;;;;;;5029646;28;20025;-78
2022/01/24 04:04:59;;;;;;;3.08;1.73;;;;;;;;;;5031195;28;20132;-79
2022/01/24 04:07:26;;;;;;;3.40;2.10;;;;;;;;;;5032093;28;20082;-79
2022/01/24 04:09:52;;;;;;;3.05;1.67;;;;;;;;;;5037332;28;20101;-79
2022/01/24 04:12:21;;;;;;;2.10;1.40;;;;;;;;;;5032979;28;20032;-79
2022/01/24 04:22:08;;;;;;;4.15;2.35;;;;;;;;;;5040366;28;20047;-79
2022/01/24 04:24:35;;;;;;;3.38;2.15;;;;;;;;;;5033808;28;20052;-79
2022/01/24 04:27:01;;;;;;;4.47;2.65;;;;;;;;;;5036505;28;20025;-79
2022/01/24 04:29:27;;;;;;;5.25;2.13;;;;;;;;;;5035697;28;20094;-79
2022/01/24 04:31:53;;;;;;;8.98;2.40;;;;;;;;;;5032088;28;20029;-79
2022/01/24 04:34:19;;;;;;;3.83;2.08;;;;;;;;;;5033543;28;20067;-78
2022/01/24 04:36:45;;;;;;;3.83;1.77;;;;;;;;;;5035002;28;20032;-78
2022/01/24 04:39:11;;;;;;;2.08;1.50;;;;;;;;;;5034197;28;20037;-79
2022/01/24 04:41:41;;;;;;;2.60;1.50;;;;;;;;;;5032540;28;20037;-78
2022/01/24 04:47:16;;;;;;;3.92;1.10;;;;;;;;;;5034343;28;20049;-78
2022/01/24 04:55:02;;;;;;;3.17;2.00;;;;;;;;;;5035639;28;20485;-78
2022/01/24 04:57:29;;;;;;;1.90;1.20;;;;;;;;;;5034887;28;20044;-79
2022/01/24 04:59:57;;;;;;;2.22;1.20;;;;;;;;;;5033198;28;20033;-79
2022/01/24 05:02:23;;;;;;;2.55;1.42;;;;;;;;;;5034113;28;20025;-78
2022/01/24 05:04:49;;;;;;;3.97;1.23;;;;;;;;;;5034609;28;20037;-78
2022/01/24 05:07:15;;;;;;;3.42;1.50;;;;;;;;;;5034987;28;20166;-79
2022/01/24 05:12:20;;;;;;;11.30;4.45;;;;;;;;;;5033520;28;20037;-79
2022/01/24 05:25:44;;;;;;;3.83;1.77;;;;;;;;;;5025492;28;20057;-77
2022/01/24 05:28:10;;;;;;;6.68;2.03;;;;;;;;;;5031742;28;20029;-78
2022/01/24 05:30:36;;;;;;;3.33;1.40;;;;;;;;;;5027721;28;20104;-77
2022/01/24 05:33:02;;;;;;;3.03;1.70;;;;;;;;;;5029161;28;20047;-78
2022/01/24 05:35:27;;;;;;;2.33;1.42;;;;;;;;;;5026732;28;20037;-77
2022/01/24 05:37:53;;;;;;;2.88;1.77;;;;;;;;;;5032222;28;20077;-78
2022/01/24 05:40:19;;;;;;;4.40;2.15;;;;;;;;;;5028425;28;20763;-78
2022/01/24 05:42:45;;;;;;;2.90;1.50;;;;;;;;;;5032984;28;20093;-77
2022/01/24 05:45:11;;;;;;;3.33;1.95;;;;;;;;;;5033051;28;20740;-78
2022/01/24 05:47:37;;;;;;;2.00;1.27;;;;;;;;;;5029644;28;20166;-78
2022/01/24 05:50:04;;;;;;;1.85;1.40;;;;;;;;;;5023100;28;20037;-77
2022/01/24 05:52:30;;;;;;;3.97;1.88;;;;;;;;;;5020007;28;20036;-79
2022/01/24 05:54:56;;;;;;;1.42;1.33;;;;;;;;;;5025545;28;20028;-78
2022/01/24 05:57:22;;;;;;;2.60;1.63;;;;;;;;;;5030704;28;20092;-78
2022/01/24 05:59:48;;;;;;;3.75;2.20;;;;;;;;;;5029574;28;20036;-79
2022/01/24 06:02:14;;;;;;;2.10;1.33;;;;;;;;;;5031724;28;20033;-79
2022/01/24 06:04:40;;;;;;;4.25;1.80;;;;;;;;;;5028761;28;20032;-78
2022/01/24 06:07:06;;;;;;;2.85;1.25;;;;;;;;;;5028211;28;20734;-78
2022/01/24 06:09:32;;;;;;;1.88;1.20;;;;;;;;;;5033284;28;20079;-77
2022/01/24 06:11:58;;;;;;;2.30;1.55;;;;;;;;;;5027868;28;20199;-79
2022/01/24 06:14:24;;;;;;;2.47;1.90;;;;;;;;;;5031013;28;20569;-79
2022/01/24 06:16:50;;;;;;;3.63;1.70;;;;;;;;;;5026290;28;20087;-78
2022/01/24 06:19:16;;;;;;;1.73;1.23;;;;;;;;;;5029572;28;20035;-79
2022/01/24 06:21:44;;;;;;;4.93;2.08;;;;;;;;;;5033164;28;20479;-77
2022/01/24 06:24:11;;;;;;;3.75;1.60;;;;;;;;;;5032897;28;20306;-79
2022/01/24 06:26:37;;;;;;;2.97;1.88;;;;;;;;;;5033483;28;20025;-78
2022/01/24 06:29:03;;;;;;;3.63;1.52;;;;;;;;;;5034592;28;20079;-79
2022/01/24 06:31:29;;;;;;;3.15;1.95;;;;;;;;;;5032572;28;20083;-78
2022/01/24 06:33:55;;;;;;;2.00;1.38;;;;;;;;;;5032465;28;20143;-79
2022/01/24 06:36:21;;;;;;;7.75;2.67;;;;;;;;;;5033987;28;20032;-78
2022/01/24 06:38:47;;;;;;;2.35;1.05;;;;;;;;;;5030630;28;20032;-79
2022/01/24 06:41:24;;;;;;;5.13;1.08;;;;;;;;;;5032685;28;20102;-78
2022/01/24 06:43:50;;;;;;;9.35;4.43;;;;;;;;;;5032845;28;20074;-78
2022/01/24 06:46:17;;;;;;;4.38;1.70;;;;;;;;;;5033066;28;20059;-78
2022/01/24 06:48:43;;;;;;;5.03;1.85;;;;;;;;;;5032965;28;20116;-78
2022/01/24 06:51:10;;;;;;;3.17;1.58;;;;;;;;;;5036451;28;20021;-78
2022/01/24 06:53:39;;;;;;;2.13;1.08;;;;;;;;;;5030927;28;20040;-78
2022/01/24 06:56:05;;;;;;;3.85;1.42;;;3.70;99.90;;;;;;5035392;28;20036;-79
2022/01/24 06:58:32;;;;;;;2.22;1.30;;;;;;;;;;5045478;28;20140;-80
2022/01/24 07:00:58;;;;;;;2.72;1.23;;;;;;;;;;5033330;28;20032;-78
2022/01/24 07:03:24;;;;;;;2.10;0.82;;;;;;;;;;5034428;28;20481;-78
2022/01/24 07:05:50;;;;;;;2.17;1.02;;;;;;;;;;5035589;28;20044;-78
2022/01/24 07:08:16;;;;;;;2.95;1.63;;;;;;;;;;5034345;28;20029;-78
2022/01/24 07:10:42;;;;;;;2.47;1.42;;;;;;;;;;5035613;28;20505;-78
2022/01/24 07:13:08;;;;;;;1.85;1.02;;;;;;;;;;5035192;28;20046;-78
2022/01/24 07:15:38;;;;;;;2.58;0.98;;;;;;;;;;5032752;28;20029;-78
2022/01/24 07:20:35;;;;;;;2.28;1.00;;;;;;;;;;5034506;28;20044;-79
2022/01/24 07:23:01;;;;;;;1.67;1.10;;;;;;;;;;5033859;28;20337;-78
2022/01/24 07:25:27;;;;;;;3.40;1.73;;;;;;;;;;5037019;28;20113;-78
2022/01/24 07:27:53;;;;;;;3.22;1.50;;;;;;;;;;5033881;28;20033;-79
2022/01/24 07:30:19;;;;;;;1.17;0.85;;;;;;;;;;5034807;28;20021;-78
2022/01/24 07:32:45;;;;;;;2.97;1.63;;;;;;;;;;5034581;28;20036;-78
2022/01/24 07:35:11;;;;;;;1.70;1.20;;;;;;;;;;5034613;28;20561;-79
2022/01/24 07:37:37;;;;;;;2.60;1.55;;;;;;;;;;5034656;28;20036;-79
2022/01/24 07:40:06;;;;;;;3.20;0.73;;;;;;;;;;5034194;28;20021;-78
2022/01/24 07:42:55;;;;;;;1.85;1.25;;;;;;;;;;5034804;28;20122;-79
2022/01/24 07:45:21;;;;;;;4.03;0.80;;;;;;;;;;5031856;28;20053;-79
2022/01/24 07:47:48;;;;;;;1.30;1.00;;;;;;;;;;5038310;28;20053;-78
2022/01/24 07:50:14;;;;;;;0.98;0.52;;;;;;;;;;5039347;28;20569;-79
2022/01/24 07:52:40;;;;;;;1.95;0.70;;;;;;;;;;5038538;28;20131;-79
2022/01/24 07:55:06;;;;;;;1.02;0.80;;;;;;;;;;5035376;28;20124;-78
2022/01/24 07:57:32;;;;;;;2.10;0.90;;;;;;;;;;5039437;28;20380;-78
2022/01/24 07:59:58;;;;;;;2.58;1.17;;;;;;;;;;5037108;28;20037;-78
2022/01/24 08:02:24;;;;;;;3.50;1.63;;;;;;;;;;5040624;28;20408;-79
2022/01/24 08:04:50;;;;;;;1.30;0.93;;;;;;;;;;5041320;28;20037;-78
2022/01/24 08:07:16;;;;;;;1.45;0.98;;;;;;;;;;5038438;28;20033;-78
2022/01/24 08:09:42;;;;;;;1.90;1.13;;;;;;;;;;5035190;28;20037;-79
2022/01/24 08:12:08;;;;;;;5.47;1.15;;;;;;;;;;5038518;28;20033;-79
2022/01/24 08:14:34;;;;;;;1.95;1.05;;;;;;;;;;5038269;28;20094;-79
2022/01/24 08:17:02;;;;;;;2.17;1.20;;;;;;;;;;5038418;28;20412;-79
2022/01/24 08:19:28;;;;;;;7.88;2.45;;;;;;;;;;5053414;28;20045;-78
2022/01/24 08:21:56;;;;;;;1.60;1.13;;;;;;;;;;5057875;28;20029;-78
2022/01/24 08:24:22;;;;;;;1.60;0.85;;;;;;;;;;5052517;28;20064;-78
2022/01/24 08:26:48;;;;;;;2.97;1.70;;;;;;;;;;5047063;28;20033;-79
2022/01/24 08:29:14;;;;;;;1.95;1.30;;;;;;;;;;5036769;28;20033;-78
2022/01/24 08:31:40;;;;;;;4.28;1.00;;;;;;;;;;5036406;28;20036;-78
2022/01/24 08:34:06;;;;;;;1.33;0.68;;;;;;;;;;5037744;28;20040;-78
2022/01/24 08:36:33;;;;;;;1.08;0.85;;;;;;;;;;5037513;28;20159;-78
2022/01/24 08:39:06;;;;;;;1.90;1.40;;;;;;;;;;5035356;28;20056;-78
2022/01/24 08:41:42;;;;;;;8.75;1.60;;;;;;;;;;5036431;28;20047;-78
2022/01/24 08:46:50;;;;;;;3.38;1.70;;;;;;;;;;5037232;28;20036;-78
2022/01/24 08:49:16;;;;;;;5.57;1.60;;;;;;;;;;5036606;28;20568;-79
2022/01/24 08:51:42;;;;;;;7.50;2.05;;;;;;;;;;5038324;28;20025;-78
2022/01/24 08:54:08;;;;;;;3.63;2.15;;;;;;;;;;5034408;28;20057;-78
2022/01/24 08:56:35;;;;;;;3.85;2.00;;;;;;;;;;5035819;28;20550;-78
2022/01/24 08:59:01;;;;;;;3.42;1.48;;;;;;;;;;5032875;28;20036;-78
2022/01/24 09:01:27;;;;;;;12.23;2.15;;;;;;;;;;5033755;28;20029;-78
2022/01/24 09:03:53;;;;;;;4.50;1.42;;;;;;;;;;5037525;28;20754;-79
2022/01/24 09:06:21;;;;;;;7.80;3.08;;;;;;;;;;5037411;28;20028;-78
2022/01/24 09:08:55;;;;;;;2.88;1.45;;;;;;;;;;5035819;28;20179;-78
2022/01/24 09:11:21;;;;;;;4.15;1.80;;;;;;;;;;5036592;28;20033;-78
2022/01/24 09:13:47;;;;;;;5.97;1.33;;;;;;;;;;5034702;28;20043;-78
2022/01/24 09:16:13;;;;;;;6.60;2.63;;;;;;;;;;5034099;28;20056;-78
2022/01/24 09:18:39;;;;;;;3.88;2.10;;;;;;;;;;5036474;28;20024;-77
2022/01/24 09:21:05;;;;;;;5.40;1.88;;;;;;;;;;5036303;28;20473;-78
2022/01/24 09:23:31;;;;;;;3.25;1.35;;;;;;;;;;5033289;28;20029;-78
2022/01/24 09:25:57;;;;;;;9.07;3.00;;;;;;;;;;5036972;28;20030;-78
2022/01/24 09:28:23;;;;;;;6.07;2.60;;;;;;;;;;5035940;28;20116;-78
2022/01/24 09:30:50;;;;;;;5.20;1.85;;;;;;;;;;5036709;28;20504;-77
2022/01/24 09:33:16;;;;;;;3.47;2.17;;;;;;;;;;5035735;28;20071;-78
2022/01/24 09:35:42;;;;;;;3.10;1.73;;;;;;;;;;5027880;28;20052;-79
2022/01/24 09:38:08;;;;;;;2.42;1.23;;;;;;;;;;5038003;28;20036;-78
2022/01/24 09:40:35;;;;;;;2.83;1.33;;;;;;;;;;5036174;28;20041;-78
2022/01/24 09:43:01;;;;;;;4.72;1.85;;;;;;;;;;5034621;28;20029;-78
2022/01/24 09:45:27;;;;;;;4.45;1.63;;;;;;;;;;5036911;28;20039;-78
2022/01/24 09:47:53;;;;;;;5.20;1.98;;;;;;;;;;5035852;28;20032;-78
2022/01/24 09:50:20;;;;;;;3.65;1.58;;;;;;;;;;5034789;28;20089;-78
2022/01/24 09:52:47;;;;;;;4.32;2.00;;;;;;;;;;5038470;28;20037;-78
2022/01/24 09:55:14;;;;;;;2.90;1.67;;;;;;;;;;5036206;28;20520;-78
2022/01/24 09:57:47;;;;;;;2.55;1.65;;;;;;;;;;5036093;28;20112;-78
2022/01/24 10:00:13;;;;;;;3.50;1.60;;;;;;;;;;5035936;28;20087;-78
2022/01/24 10:02:40;;;;;;;3.50;1.73;;;;;;;;;;5036141;28;20036;-78
2022/01/24 10:05:24;;;;;;;6.68;2.85;;;;;;;;;;5033696;28;20043;-78
2022/01/24 10:07:52;;;;;;;5.80;1.83;;;;;;;;;;5035156;28;20444;-78
2022/01/24 10:10:27;;;;;;;6.13;3.45;;;;;;;;;;5035938;28;22488;-77
2022/01/24 10:18:05;;;;;;;3.25;1.52;;;;;;;;;;5044535;28;20542;-77
2022/01/24 10:20:33;;;;;;;3.78;2.00;;;;;;;;;;5046484;28;20496;-78
2022/01/24 10:23:02;;;;;;;5.43;2.35;;;;;;;;;;5043591;28;20052;-78
2022/01/24 10:25:28;;;;;;;8.57;2.10;;;;;;;;;;5040393;28;20040;-79
2022/01/24 10:28:01;;;;;;;3.63;1.50;;;;;;;;;;5051360;28;20029;-78
2022/01/24 10:30:27;;;;;;;8.10;2.35;;;;;;;;;;5038323;28;20036;-77
2022/01/24 10:32:55;;;;;;;4.75;2.45;;;;;;;;;;5043796;28;20634;-78
2022/01/24 10:35:34;;;;;;;3.22;1.60;;;;;;;;;;5047559;28;20036;-78
2022/01/24 10:38:17;;;;;;;2.88;1.83;;;;;;;;;;5045246;28;20033;-78
2022/01/24 10:40:53;;;;;;;3.35;1.63;;;;;;;;;;5042901;28;20040;-77
2022/01/24 10:43:19;;;;;;;15.48;2.00;;;;;;;;;;5044194;28;20397;-78
2022/01/24 10:45:46;;;;;;;8.93;2.13;;;;;;;;;;5037397;28;20028;-77
2022/01/24 10:48:12;;;;;;;4.65;1.80;;;;;;;;;;5044254;28;20032;-78
2022/01/24 10:50:38;;;;;;;5.47;2.22;;;;;;;;;;5039004;28;20033;-78
2022/01/24 10:53:12;;;;;;;4.93;2.35;;;;;;;;;;5042553;28;20542;-78
2022/01/24 10:55:40;;;;;;;3.58;2.20;;;;;;;;;;5033100;28;20033;-78
2022/01/24 10:58:07;;;;;;;3.60;1.75;;;;;;;;;;5036290;28;20981;-78
2022/01/24 11:00:34;;;;;;;4.20;1.45;;;;;;;;;;5034497;28;20419;-77
2022/01/24 11:03:01;;;;;;;4.93;2.50;;;;;;;;;;5035040;28;20123;-77
2022/01/24 11:05:28;;;;;;;4.53;2.05;;;;;;;;;;5033738;28;20021;-77
2022/01/24 11:07:56;;;;;;;4.07;2.00;;;;;;;;;;5031438;28;20142;-78
2022/01/24 11:10:23;;;;;;;6.68;2.33;;;;;;;;;;5032006;28;20547;-78
2022/01/24 11:12:49;;;;;;;3.25;1.88;;;;;;;;;;5031977;28;20515;-79
2022/01/24 11:15:15;;;;;;;3.50;2.47;;;;;;;;;;5031771;28;20435;-77
2022/01/24 11:17:42;;;;;;;6.53;2.33;;;;;;;;;;5034801;28;20032;-79
2022/01/24 11:20:11;;;;;;;6.78;2.63;;;;;;;;;;5036216;28;20025;-79
2022/01/24 11:22:44;;;;;;;3.15;1.90;;;;;;;;;;5040974;28;20082;-79
2022/01/24 11:25:11;;;;;;;2.80;1.73;;;;;;;;;;5037995;28;20037;-79
2022/01/24 11:27:38;;;;;;;4.05;2.08;;;;;;;;;;5038079;28;20120;-79
2022/01/24 11:30:11;;;;;;;4.47;2.22;;;;;;;;;;5036938;28;20025;-79
2022/01/24 11:32:38;;;;;;;4.38;2.33;;;;;;;;;;5040075;28;20029;-79
2022/01/24 11:35:04;;;;;;;2.38;1.60;;;;;;;;;;5038199;28;20041;-78
2022/01/24 11:37:34;;;;;;;7.53;1.90;;;;;;;;;;5037079;28;20067;-79
2022/01/24 11:40:01;;;;;;;6.45;1.92;;;;;;;;;;5037658;28;20028;-79
2022/01/24 11:42:31;;;;;;;6.72;2.22;;;;;;;;;;5037965;28;20044;-79
2022/01/24 11:45:04;;;;;;;2.97;1.50;;;;;;;;;;5033093;28;20058;-79
2022/01/24 11:47:31;;;;;;;3.15;1.77;;;;;;;;;;5035694;28;20480;-79
2022/01/24 11:49:57;;;;;;;5.68;1.95;;;;;;;;;;5038629;28;20037;-80
2022/01/24 11:52:33;;;;;;;7.07;2.05;;;;;;;;;;5040257;28;20017;-79
2022/01/24 11:55:16;;;;;;;3.95;1.98;;;;;;;;;;5037717;28;20050;-79
2022/01/24 11:57:45;;;;;;;3.53;1.83;;;;;;;;;;5038906;28;20491;-79
2022/01/24 12:00:11;;;;;;;4.13;2.05;;;;;;;;;;5035646;28;20481;-79
2022/01/24 12:02:46;;;;;;;4.07;2.00;;;;;;;;;;5037531;28;20045;-79
2022/01/24 12:05:13;;;;;;;5.10;2.38;;;;;;;;;;5034928;28;20045;-79
2022/01/24 12:07:43;;;;;;;6.03;2.45;;;;;;;;;;5035926;28;20087;-79
2022/01/24 12:10:22;;;;;;;4.50;1.80;;;;;;;;;;5035195;28;20472;-79
2022/01/24 12:12:50;;;;;;;2.53;1.70;;;;;;;;;;5035899;28;20036;-79
2022/01/24 12:15:34;;;;;;;4.47;2.28;;;;;;;;;;5033975;28;20115;-81
2022/01/24 12:18:02;;;;;;;5.60;2.10;;;;;;;;;;5038286;28;20051;-79
2022/01/24 12:20:31;;;;;;;3.17;2.40;;;;;;;;;;5039807;28;20032;-81
2022/01/24 12:22:57;;;;;;;3.70;1.60;;;;;;;;;;5036664;28;22134;-78
2022/01/24 12:25:42;;;;;;;5.40;2.28;;;;;;;;;;5024523;28;20044;-79
2022/01/24 12:28:23;;;;;;;3.45;2.15;;;;;;;;;;5029045;28;20044;-78
2022/01/24 12:31:06;;;;;;;3.70;2.38;;;;;;;;;;5023239;28;20032;-77
2022/01/24 12:33:32;;;;;;;4.70;1.98;;;;;;;;;;5038325;28;20060;-77
2022/01/24 12:35:59;;;;;;;3.95;1.77;;;;;;;;;;5034888;28;20720;-78
2022/01/24 12:38:25;;;;;;;9.25;2.13;;;;;;;;;;5033265;28;20038;-78
2022/01/24 12:41:11;;;;;;;4.80;1.67;;;;;;;;;;5034067;28;20021;-79
2022/01/24 12:43:52;;;;;;;2.75;1.90;;;;;;;;;;5033901;28;20052;-78
2022/01/24 12:46:26;;;;;;;2.78;1.27;;;;;;;;;;5030975;28;20033;-79
2022/01/24 12:48:52;;;;;;;5.13;1.92;;;;;;;;;;5037608;28;20187;-79
2022/01/24 12:51:22;;;;;;;2.42;1.25;;;;;;;;;;5038564;28;20601;-78
2022/01/24 12:53:48;;;;;;;5.05;2.83;;;;;;;;;;5024945;28;20032;-79
2022/01/24 12:56:16;;;;;;;5.00;1.77;;;;;;;;;;5032720;28;20036;-78
2022/01/24 12:58:43;;;;;;;3.13;1.65;;;;;;;;;;5033570;28;20025;-77
2022/01/24 13:01:28;;;;;;;3.88;2.35;;;;;;;;;;5031835;28;20116;-79
2022/01/24 13:03:56;;;;;;;2.85;1.38;;;;;;;;;;5036146;28;20484;-78
2022/01/24 13:06:22;;;;;;;4.95;1.65;;;;;;;;;;5034209;28;20032;-78
2022/01/24 13:08:52;;;;;;;6.82;1.90;;;;;;;;;;5033674;28;20520;-78
2022/01/24 13:11:18;;;;;;;6.93;1.42;;;;;;;;;;5034918;28;21722;-79
2022/01/24 13:14:24;;;;;;;4.95;1.30;;;;;;;;;;5039360;28;20029;-78
2022/01/24 13:22:32;;;;;;;6.47;1.73;;;;;;;;;;5011337;28;20033;-78
2022/01/24 13:25:06;;;;;;;2.15;1.05;;;;;;;;;;5035408;28;20049;-78
2022/01/24 13:27:43;;;;;;;4.20;1.55;;;;;;;;;;5032318;28;20106;-79
2022/01/24 13:30:12;;;;;;;2.97;1.38;;;;;;;;;;5039282;28;20028;-79
2022/01/24 13:32:42;;;;;;;5.18;2.40;;;;;;;;;;5034994;28;20094;-79
2022/01/24 13:35:17;;;;;;;4.75;1.30;;;;;;;;;;5037348;28;20493;-80
2022/01/24 13:37:43;;;;;;;3.38;1.00;;;;;;;;;;5036977;28;20174;-80
2022/01/24 13:40:10;;;;;;;4.18;1.55;;;;;;;;;;5036280;28;20033;-80
2022/01/24 13:42:36;;;;;;;7.53;3.05;;;;;;;;;;5034776;28;20033;-80
2022/01/24 13:45:02;;;;;;;6.40;1.98;;;;;;;;;;5033446;28;20068;-79
2022/01/24 13:47:28;;;;;;;5.90;2.42;;;;;;;;;;5039083;28;20095;-79
2022/01/24 13:49:54;;;;;;;9.48;2.88;;;;;;;;;;5036008;28;20483;-78
2022/01/24 13:52:21;;;;;;;10.27;4.03;;;;;;;;;;5037473;28;20025;-79
2022/01/24 13:54:47;;;;;;;7.40;3.22;;;;;;;;;;5048849;28;20163;-78
2022/01/24 13:57:19;;;;;;;8.55;2.75;;;;;;;;;;5054656;28;20044;-82
2022/01/24 13:59:46;;;;;;;4.18;1.95;;;;;;;;;;5041867;28;20057;-80
2022/01/24 14:02:13;;;;;;;17.83;2.17;;;;;;;;;;5044209;28;20021;-81
2022/01/24 14:04:46;;;;;;;3.45;1.08;;;;;;;;;;5043722;28;20584;-80
2022/01/24 14:07:15;;;;;;;3.58;1.83;;;;;;;;;;5048885;28;20055;-79
2022/01/24 14:09:44;;;;;;;5.57;1.85;;;;;;;;;;5031123;28;20436;-79
2022/01/24 14:12:12;;;;;;;6.97;1.52;;;;;;;;;;5037648;28;20056;-80
2022/01/24 14:14:46;;;;;;;9.07;1.67;;;;;;;;;;5031350;28;20036;-78
2022/01/24 14:19:40;;;;;;;2.85;1.42;;;;;;;;;;5036460;28;20033;-78
2022/01/24 14:22:06;;;;;;;1.52;0.98;;;;;;;;;;5030323;28;20040;-78
2022/01/24 14:24:45;;;;;;;9.52;1.50;;;;;;;;;;5033157;28;20037;-78
2022/01/24 14:27:11;;;;;;;5.00;1.63;;;;;;;;;;5032412;28;20604;-79
2022/01/24 14:29:38;;;;;;;3.75;1.88;;;;;;;;;;5027798;28;20096;-78
2022/01/24 14:32:10;;;;;;;5.18;1.95;;;;;;;;;;5029451;28;20029;-76
2022/01/24 14:34:37;;;;;;;4.90;2.60;;;;;;;;;;5028837;28;20063;-77
2022/01/24 14:37:05;;;;;;;3.70;1.58;;;;;;;;;;5025882;28;20033;-79
2022/01/24 14:39:32;;;;;;;4.40;2.13;;;;;;;;;;5029520;28;20095;-79
2022/01/24 14:41:58;;;;;;;2.88;1.48;;;;;;;;;;5029238;28;20036;-78
2022/01/24 14:47:09;;;;;;;3.88;1.58;;;;;;;;;;5029499;28;20064;-78
2022/01/24 14:49:36;;;;;;;3.13;1.55;;;;;;;;;;5029866;28;20562;-79
2022/01/24 14:52:05;;;;;;;5.35;1.70;;;;;;;;;;5028068;28;20102;-78
2022/01/24 14:54:34;;;;;;;14.40;2.10;;;;;;;;;;5030890;28;20500;-79
2022/01/24 14:57:02;;;;;;;2.50;1.35;;;;;;;;;;5032736;28;20060;-79
2022/01/24 14:59:28;;;;;;;5.53;1.40;;;;;;;;;;5027909;28;20028;-79
2022/01/24 15:01:55;;;;;;;10.77;1.95;;;;;;;;;;5027497;28;20120;-79
2022/01/24 15:04:22;;;;;;;6.82;1.20;;;;;;;;;;5029468;28;20097;-80
2022/01/24 15:06:48;;;;;;;5.45;1.83;;;;;;;;;;5032500;28;20178;-89
2022/01/24 15:09:18;;;;;;;6.85;2.40;;;;;;;;;;5032534;28;20037;-79
2022/01/24 15:11:45;;;;;;;4.75;1.70;;;;;;;;;;5029207;28;20044;-78
2022/01/24 15:14:19;;;;;;;3.25;1.65;;;;;;;;;;5034644;28;20547;-79
2022/01/24 15:27:48;;;;;;;3.85;1.50;;;;;;;;;;5035101;28;20068;-79
2022/01/24 15:30:15;;;;;;;4.03;1.60;;;;;;;;;;5030221;28;20040;-78
2022/01/24 15:32:41;;;;;;;3.40;1.55;;;;;;;;;;5033377;28;20091;-78
2022/01/24 15:35:08;;;;;;;5.20;2.13;;;;;;;;;;5030185;28;20037;-78
2022/01/24 15:37:33;;;;;;;5.65;1.48;;;;;;;;;;5032568;28;20392;-77
2022/01/24 15:40:00;;;;;;;2.20;1.30;;;;;;;;;;5029035;28;20195;-77
2022/01/24 15:42:41;;;;;;;5.30;1.65;;;;;;;;;;5031425;28;20043;-77
2022/01/24 15:47:37;;;;;;;6.55;1.75;;;;;;;;;;5028839;28;20151;-77
2022/01/24 15:50:10;;;;;;;2.08;1.30;;;;;;;;;;5033480;28;20622;-77
2022/01/24 15:52:37;;;;;;;2.80;1.60;;;;;;;;;;5031406;28;20439;-77
2022/01/24 15:55:07;;;;;;;1.17;0.73;;;;;;;;;;5032116;28;20033;-77
2022/01/24 15:57:41;;;;;;;4.32;1.92;;;;;;;;;;5032011;28;20025;-76
2022/01/24 16:00:09;;;;;;;3.33;1.90;;;;;;;;;;5021971;28;20083;-77
2022/01/24 16:02:35;;;;;;;3.85;1.50;;;;;;;;;;5032388;28;20083;-77
2022/01/24 16:05:01;;;;;;;1.60;1.13;;;;;;;;;;5035173;28;20041;-77
2022/01/24 16:07:27;;;;;;;2.90;1.65;;;;;;;;;;5032735;28;20029;-80
2022/01/24 16:09:53;;;;;;;3.20;1.25;;;;;;;;;;5035589;28;20207;-79
2022/01/24 16:12:19;;;;;;;3.38;1.77;;;;;;;;;;5039290;28;20091;-78
2022/01/24 16:14:45;;;;;;;9.18;2.17;;;;;;;;;;5039820;28;20131;-79
2022/01/24 16:17:12;;;;;;;11.30;3.33;;;;;;;;;;5037529;28;20044;-79
2022/01/24 16:19:44;;;;;;;9.73;4.38;;;;;;;;;;5035408;28;20467;-80
2022/01/24 16:27:12;;;;;;;5.97;3.13;;;;;;;;;;5036275;28;20742;-79
2022/01/24 16:29:38;;;;;;;6.63;2.83;;;;;;;;;;5034372;28;20032;-78
2022/01/24 16:32:05;;;;;;;18.00;5.85;;;;;;;;;;5038168;28;20032;-78
2022/01/24 16:34:31;;;;;;;19.13;4.78;;;;;;;;;;5042390;28;20037;-78
2022/01/24 16:36:58;;;;;;;19.48;5.40;;;;;;;;;;5042613;28;20027;-77
2022/01/24 16:39:29;;;;;;;26.75;9.82;;;;;;;;;;5033140;28;20353;-77
2022/01/24 16:42:01;;;;;;;21.00;8.77;;;;;;;;;;5028486;28;20033;-77
2022/01/24 16:47:10;;;;;;;8.00;3.93;;;;;;;;;;5028416;28;20017;-77
2022/01/24 16:49:39;;;;;;;7.82;3.95;;;;;;;;;;5040696;28;20295;-77
2022/01/24 16:52:06;;;;;;;7.95;4.55;;;;;;;;;;5039281;28;20036;-77
2022/01/24 16:54:33;;;;;;;14.05;4.60;;;;;;;;;;5036732;28;20147;-77
2022/01/24 16:56:59;;;;;;;4.03;2.33;;;;;;;;;;5031504;28;20044;-77
2022/01/24 16:59:25;;;;;;;5.57;3.10;;;;;;;;;;5027370;28;20095;-77
2022/01/24 17:01:52;;;;;;;5.50;2.50;;;;;;;;;;5019734;28;20036;-77
2022/01/24 17:04:19;;;;;;;5.15;2.60;;;;;;;;;;5033745;28;20041;-81